sensor_id;sensor_type;location;lat;lon;timestamp;temperature;humidity
58582;DHT22;44361;51.476;5.700;2023-04-01T00:02:02;9.70;99.90
58582;DHT22;44361;51.476;5.700;2023-04-01T00:04:28;9.70;99.90
58582;DHT22;44361;51.476;5.700;2023-04-01T00:06:54;9.70;99.90
58582;DHT22;44361;51.476;5.700;2023-04-01T00:09:19;9.70;99.90
58582;DHT22;44361;51.476;5.700;2023-04-01T00:11:45;9.70;99.90
58582;DHT22;44361;51.476;5.700;2023-04-01T00:14:11;9.70;99.90
58582;DHT22;44361;51.476;5.700;2023-04-01T00:16:36;9.70;99.90
58582;DHT22;44361;51.476;5.700;2023-04-01T00:19:02;9.70;99.90
58582;DHT22;44361;51.476;5.700;2023-04-01T00:21:28;9.70;99.90
58582;DHT22;44361;51.476;5.700;2023-04-01T00:23:53;9.70;99.90
58582;DHT22;44361;51.476;5.700;2023-04-01T00:26:20;9.60;99.90
58582;DHT22;44361;51.476;5.700;2023-04-01T00:28:47;9.70;99.90
58582;DHT22;44361;51.476;5.700;2023-04-01T00:31:13;9.60;99.90
58582;DHT22;44361;51.476;5.700;2023-04-01T00:33:40;9.70;99.90
58582;DHT22;44361;51.476;5.700;2023-04-01T00:36:18;9.60;99.90
58582;DHT22;44361;51.476;5.700;2023-04-01T00:38:44;9.70;99.90
58582;DHT22;44361;51.476;5.700;2023-04-01T00:41:12;9.70;99.90
58582;DHT22;44361;51.476;5.700;2023-04-01T00:43:43;9.70;99.90
58582;DHT22;44361;51.476;5.700;2023-04-01T00:46:10;9.70;99.90
58582;DHT22;44361;51.476;5.700;2023-04-01T00:48:39;9.70;99.90
58582;DHT22;44361;51.476;5.700;2023-04-01T00:51:25;9.70;99.90
58582;DHT22;44361;51.476;5.700;2023-04-01T00:53:54;9.70;99.90
58582;DHT22;44361;51.476;5.700;2023-04-01T00:56:57;9.70;99.90
58582;DHT22;44361;51.476;5.700;2023-04-01T00:59:27;9.70;99.90
58582;DHT22;44361;51.476;5.700;2023-04-01T01:01:54;9.70;99.90
58582;DHT22;44361;51.476;5.700;2023-04-01T01:04:27;9.70;99.90
58582;DHT22;44361;51.476;5.700;2023-04-01T01:09:53;9.70;99.90
58582;DHT22;44361;51.476;5.700;2023-04-01T01:15:30;9.70;99.90
58582;DHT22;44361;51.476;5.700;2023-04-01T01:26:52;9.60;99.90
58582;DHT22;44361;51.476;5.700;2023-04-01T01:37:20;9.60;99.90
58582;DHT22;44361;51.476;5.700;2023-04-01T01:39:53;9.60;99.90
58582;DHT22;44361;51.476;5.700;2023-04-01T01:42:20;9.60;99.90
58582;DHT22;44361;51.476;5.700;2023-04-01T01:44:49;9.60;99.90
58582;DHT22;44361;51.476;5.700;2023-04-01T01:47:16;9.60;99.90
58582;DHT22;44361;51.476;5.700;2023-04-01T01:49:43;9.60;99.90
58582;DHT22;44361;51.476;5.700;2023-04-01T01:52:11;9.60;99.90
58582;DHT22;44361;51.476;5.700;2023-04-01T01:54:50;9.60;99.90
58582;DHT22;44361;51.476;5.700;2023-04-01T01:57:18;9.60;99.90
58582;DHT22;44361;51.476;5.700;2023-04-01T01:59:45;9.60;99.90
58582;DHT22;44361;51.476;5.700;2023-04-01T02:02:13;9.60;99.90
58582;DHT22;44361;51.476;5.700;2023-04-01T02:04:42;9.60;99.90
58582;DHT22;44361;51.476;5.700;2023-04-01T02:07:22;9.60;99.90
58582;DHT22;44361;51.476;5.700;2023-04-01T02:09:49;9.60;99.90
58582;DHT22;44361;51.476;5.700;2023-04-01T02:12:16;9.60;99.90
58582;DHT22;44361;51.476;5.700;2023-04-01T02:17:22;9.60;99.90
58582;DHT22;44361;51.476;5.700;2023-04-01T02:19:55;9.60;99.90
58582;DHT22;44361;51.476;5.700;2023-04-01T02:22:25;9.60;99.90
58582;DHT22;44361;51.476;5.700;2023-04-01T02:24:54;9.60;99.90
58582;DHT22;44361;51.476;5.700;2023-04-01T02:27:23;9.60;99.90
58582;DHT22;44361;51.476;5.700;2023-04-01T02:29:50;9.60;99.90
58582;DHT22;44361;51.476;5.700;2023-04-01T02:32:16;9.60;99.90
58582;DHT22;44361;51.476;5.700;2023-04-01T02:34:43;9.60;99.90
58582;DHT22;44361;51.476;5.700;2023-04-01T02:37:08;9.60;99.90
58582;DHT22;44361;51.476;5.700;2023-04-01T02:39:35;9.60;99.90
58582;DHT22;44361;51.476;5.700;2023-04-01T02:42:01;9.60;99.90
58582;DHT22;44361;51.476;5.700;2023-04-01T02:44:26;9.60;99.90
58582;DHT22;44361;51.476;5.700;2023-04-01T02:46:52;9.60;99.90
58582;DHT22;44361;51.476;5.700;2023-04-01T02:49:18;9.60;99.90
58582;DHT22;44361;51.476;5.700;2023-04-01T02:51:43;9.50;99.90
58582;DHT22;44361;51.476;5.700;2023-04-01T02:54:09;9.60;99.90
58582;DHT22;44361;51.476;5.700;2023-04-01T02:56:35;9.60;99.90
58582;DHT22;44361;51.476;5.700;2023-04-01T02:59:00;9.60;99.90
58582;DHT22;44361;51.476;5.700;2023-04-01T03:01:26;9.50;99.90
58582;DHT22;44361;51.476;5.700;2023-04-01T03:03:51;9.60;99.90
58582;DHT22;44361;51.476;5.700;2023-04-01T03:06:17;9.50;99.90
58582;DHT22;44361;51.476;5.700;2023-04-01T03:08:43;9.50;99.90
58582;DHT22;44361;51.476;5.700;2023-04-01T03:11:09;9.50;99.90
58582;DHT22;44361;51.476;5.700;2023-04-01T03:13:35;9.50;99.90
58582;DHT22;44361;51.476;5.700;2023-04-01T03:16:01;9.50;99.90
58582;DHT22;44361;51.476;5.700;2023-04-01T03:18:27;9.50;99.90
58582;DHT22;44361;51.476;5.700;2023-04-01T03:20:52;9.50;99.90
58582;DHT22;44361;51.476;5.700;2023-04-01T03:23:18;9.50;99.90
58582;DHT22;44361;51.476;5.700;2023-04-01T03:25:46;9.50;99.90
58582;DHT22;44361;51.476;5.700;2023-04-01T03:28:11;9.50;99.90
58582;DHT22;44361;51.476;5.700;2023-04-01T03:30:38;9.50;99.90
58582;DHT22;44361;51.476;5.700;2023-04-01T03:33:04;9.50;99.90
58582;DHT22;44361;51.476;5.700;2023-04-01T03:35:29;9.50;99.90
58582;DHT22;44361;51.476;5.700;2023-04-01T03:37:55;9.50;99.90
58582;DHT22;44361;51.476;5.700;2023-04-01T03:40:21;9.50;99.90
58582;DHT22;44361;51.476;5.700;2023-04-01T03:42:47;9.50;99.90
58582;DHT22;44361;51.476;5.700;2023-04-01T03:45:12;9.50;99.90
58582;DHT22;44361;51.476;5.700;2023-04-01T03:47:40;9.50;99.90
58582;DHT22;44361;51.476;5.700;2023-04-01T03:50:06;9.50;99.90
58582;DHT22;44361;51.476;5.700;2023-04-01T03:52:32;9.50;99.90
58582;DHT22;44361;51.476;5.700;2023-04-01T03:54:57;9.50;99.90
58582;DHT22;44361;51.476;5.700;2023-04-01T03:57:23;9.50;99.90
58582;DHT22;44361;51.476;5.700;2023-04-01T03:59:49;9.40;99.90
58582;DHT22;44361;51.476;5.700;2023-04-01T04:02:14;9.40;99.90
58582;DHT22;44361;51.476;5.700;2023-04-01T04:04:40;9.40;99.90
58582;DHT22;44361;51.476;5.700;2023-04-01T04:07:06;9.40;99.90
58582;DHT22;44361;51.476;5.700;2023-04-01T04:09:32;9.40;99.90
58582;DHT22;44361;51.476;5.700;2023-04-01T04:11:58;9.40;99.90
58582;DHT22;44361;51.476;5.700;2023-04-01T04:14:24;9.40;99.90
58582;DHT22;44361;51.476;5.700;2023-04-01T04:16:50;9.40;99.90
58582;DHT22;44361;51.476;5.700;2023-04-01T04:19:15;9.40;99.90
58582;DHT22;44361;51.476;5.700;2023-04-01T04:21:41;9.40;99.90
58582;DHT22;44361;51.476;5.700;2023-04-01T04:24:08;9.40;99.90
58582;DHT22;44361;51.476;5.700;2023-04-01T04:26:33;9.40;99.90
58582;DHT22;44361;51.476;5.700;2023-04-01T04:29:00;9.40;99.90
58582;DHT22;44361;51.476;5.700;2023-04-01T04:31:26;9.40;99.90
58582;DHT22;44361;51.476;5.700;2023-04-01T04:33:52;9.40;99.90
58582;DHT22;44361;51.476;5.700;2023-04-01T04:36:19;9.40;99.90
58582;DHT22;44361;51.476;5.700;2023-04-01T04:38:45;9.40;99.90
58582;DHT22;44361;51.476;5.700;2023-04-01T04:41:15;9.30;99.90
58582;DHT22;44361;51.476;5.700;2023-04-01T04:43:49;9.30;99.90
58582;DHT22;44361;51.476;5.700;2023-04-01T04:46:15;9.30;99.90
58582;DHT22;44361;51.476;5.700;2023-04-01T04:48:40;9.30;99.90
58582;DHT22;44361;51.476;5.700;2023-04-01T04:51:06;9.30;99.90
58582;DHT22;44361;51.476;5.700;2023-04-01T04:53:32;9.30;99.90
58582;DHT22;44361;51.476;5.700;2023-04-01T04:55:57;9.30;99.90
58582;DHT22;44361;51.476;5.700;2023-04-01T04:58:23;9.20;99.90
58582;DHT22;44361;51.476;5.700;2023-04-01T05:00:48;9.20;99.90
58582;DHT22;44361;51.476;5.700;2023-04-01T05:03:14;9.20;99.90
58582;DHT22;44361;51.476;5.700;2023-04-01T05:05:40;9.20;99.90
58582;DHT22;44361;51.476;5.700;2023-04-01T05:08:12;9.20;99.90
58582;DHT22;44361;51.476;5.700;2023-04-01T05:10:38;9.20;99.90
58582;DHT22;44361;51.476;5.700;2023-04-01T05:13:03;9.20;99.90
58582;DHT22;44361;51.476;5.700;2023-04-01T05:15:29;9.20;99.90
58582;DHT22;44361;51.476;5.700;2023-04-01T05:17:54;9.20;99.90
58582;DHT22;44361;51.476;5.700;2023-04-01T05:20:20;9.20;99.90
58582;DHT22;44361;51.476;5.700;2023-04-01T05:22:45;9.20;99.90
58582;DHT22;44361;51.476;5.700;2023-04-01T05:25:11;9.20;99.90
58582;DHT22;44361;51.476;5.700;2023-04-01T05:27:36;9.20;99.90
58582;DHT22;44361;51.476;5.700;2023-04-01T05:30:02;9.10;99.90
58582;DHT22;44361;51.476;5.700;2023-04-01T05:32:28;9.20;99.90
58582;DHT22;44361;51.476;5.700;2023-04-01T05:34:55;9.20;99.90
58582;DHT22;44361;51.476;5.700;2023-04-01T05:37:21;9.20;99.90
58582;DHT22;44361;51.476;5.700;2023-04-01T05:39:48;9.20;99.90
58582;DHT22;44361;51.476;5.700;2023-04-01T05:42:13;9.10;99.90
58582;DHT22;44361;51.476;5.700;2023-04-01T05:44:39;9.10;99.90
58582;DHT22;44361;51.476;5.700;2023-04-01T05:47:04;9.10;99.90
58582;DHT22;44361;51.476;5.700;2023-04-01T05:49:30;9.20;99.90
58582;DHT22;44361;51.476;5.700;2023-04-01T05:51:56;9.10;99.90
58582;DHT22;44361;51.476;5.700;2023-04-01T05:54:22;9.20;99.90
58582;DHT22;44361;51.476;5.700;2023-04-01T05:56:47;9.20;99.90
58582;DHT22;44361;51.476;5.700;2023-04-01T05:59:13;9.20;99.90
58582;DHT22;44361;51.476;5.700;2023-04-01T06:01:39;9.20;99.90
58582;DHT22;44361;51.476;5.700;2023-04-01T06:04:05;9.20;99.90
58582;DHT22;44361;51.476;5.700;2023-04-01T06:06:32;9.20;99.90
58582;DHT22;44361;51.476;5.700;2023-04-01T06:09:07;9.20;99.90
58582;DHT22;44361;51.476;5.700;2023-04-01T06:11:57;9.10;99.90
58582;DHT22;44361;51.476;5.700;2023-04-01T06:15:02;9.20;99.90
58582;DHT22;44361;51.476;5.700;2023-04-01T06:20:42;9.20;99.90
58582;DHT22;44361;51.476;5.700;2023-04-01T06:23:10;9.20;99.90
58582;DHT22;44361;51.476;5.700;2023-04-01T06:31:06;9.20;99.90
58582;DHT22;44361;51.476;5.700;2023-04-01T06:36:35;9.20;99.90
58582;DHT22;44361;51.476;5.700;2023-04-01T06:39:17;9.30;99.90
58582;DHT22;44361;51.476;5.700;2023-04-01T06:45:18;9.30;99.90
58582;DHT22;44361;51.476;5.700;2023-04-01T06:53:04;9.30;99.90
58582;DHT22;44361;51.476;5.700;2023-04-01T06:55:48;9.40;99.90
58582;DHT22;44361;51.476;5.700;2023-04-01T06:58:21;9.40;99.90
58582;DHT22;44361;51.476;5.700;2023-04-01T07:00:59;9.40;99.90
58582;DHT22;44361;51.476;5.700;2023-04-01T07:03:43;9.40;99.90
58582;DHT22;44361;51.476;5.700;2023-04-01T07:06:35;9.40;99.90
58582;DHT22;44361;51.476;5.700;2023-04-01T07:09:12;9.40;99.90
58582;DHT22;44361;51.476;5.700;2023-04-01T07:11:38;9.50;99.90
58582;DHT22;44361;51.476;5.700;2023-04-01T07:14:32;9.50;99.90
58582;DHT22;44361;51.476;5.700;2023-04-01T07:17:17;9.50;99.90
58582;DHT22;44361;51.476;5.700;2023-04-01T07:19:58;9.60;99.90
58582;DHT22;44361;51.476;5.700;2023-04-01T07:22:35;9.60;99.90
58582;DHT22;44361;51.476;5.700;2023-04-01T07:25:04;9.60;99.90
58582;DHT22;44361;51.476;5.700;2023-04-01T07:27:30;9.70;99.90
58582;DHT22;44361;51.476;5.700;2023-04-01T07:30:01;9.70;99.90
58582;DHT22;44361;51.476;5.700;2023-04-01T07:37:54;9.80;99.90
58582;DHT22;44361;51.476;5.700;2023-04-01T07:43:27;9.90;99.90
58582;DHT22;44361;51.476;5.700;2023-04-01T07:46:03;9.90;99.90
58582;DHT22;44361;51.476;5.700;2023-04-01T07:48:47;9.90;99.90
58582;DHT22;44361;51.476;5.700;2023-04-01T07:51:28;9.90;99.90
58582;DHT22;44361;51.476;5.700;2023-04-01T08:11:08;9.90;99.90
58582;DHT22;44361;51.476;5.700;2023-04-01T08:16:30;10.10;99.90
58582;DHT22;44361;51.476;5.700;2023-04-01T08:21:44;10.20;99.90
58582;DHT22;44361;51.476;5.700;2023-04-01T08:24:41;10.40;99.90
58582;DHT22;44361;51.476;5.700;2023-04-01T08:27:23;10.50;99.90
58582;DHT22;44361;51.476;5.700;2023-04-01T08:29:58;10.60;99.90
58582;DHT22;44361;51.476;5.700;2023-04-01T08:32:35;10.70;99.90
58582;DHT22;44361;51.476;5.700;2023-04-01T08:35:30;10.80;99.90
58582;DHT22;44361;51.476;5.700;2023-04-01T08:38:01;10.80;99.90
58582;DHT22;44361;51.476;5.700;2023-04-01T08:40:56;10.80;99.90
58582;DHT22;44361;51.476;5.700;2023-04-01T08:46:39;10.70;99.90
58582;DHT22;44361;51.476;5.700;2023-04-01T08:52:26;10.60;99.90
58582;DHT22;44361;51.476;5.700;2023-04-01T09:00:31;10.50;99.90
58582;DHT22;44361;51.476;5.700;2023-04-01T09:06:13;10.50;99.90
58582;DHT22;44361;51.476;5.700;2023-04-01T09:09:09;10.50;99.90
58582;DHT22;44361;51.476;5.700;2023-04-01T09:20:32;10.70;99.90
58582;DHT22;44361;51.476;5.700;2023-04-01T09:23:36;10.90;99.90
58582;DHT22;44361;51.476;5.700;2023-04-01T09:26:25;11.10;99.90
58582;DHT22;44361;51.476;5.700;2023-04-01T09:34:30;11.30;99.90
58582;DHT22;44361;51.476;5.700;2023-04-01T09:37:17;11.40;99.90
58582;DHT22;44361;51.476;5.700;2023-04-01T09:50:48;12.00;99.90
58582;DHT22;44361;51.476;5.700;2023-04-01T09:53:33;12.00;99.90
58582;DHT22;44361;51.476;5.700;2023-04-01T10:02:27;11.90;99.90
58582;DHT22;44361;51.476;5.700;2023-04-01T10:13:22;11.40;99.90
58582;DHT22;44361;51.476;5.700;2023-04-01T10:24:45;11.00;99.90
58582;DHT22;44361;51.476;5.700;2023-04-01T10:39:30;10.80;99.90
58582;DHT22;44361;51.476;5.700;2023-04-01T10:42:40;10.80;99.90
58582;DHT22;44361;51.476;5.700;2023-04-01T10:45:46;10.80;99.90
58582;DHT22;44361;51.476;5.700;2023-04-01T10:51:10;10.80;99.90
58582;DHT22;44361;51.476;5.700;2023-04-01T11:04:54;11.00;99.90
58582;DHT22;44361;51.476;5.700;2023-04-01T11:07:58;10.90;99.90
58582;DHT22;44361;51.476;5.700;2023-04-01T11:16:04;10.90;99.90
58582;DHT22;44361;51.476;5.700;2023-04-01T11:21:51;10.80;99.90
58582;DHT22;44361;51.476;5.700;2023-04-01T11:32:52;10.70;99.90
58582;DHT22;44361;51.476;5.700;2023-04-01T11:38:31;10.80;99.90
58582;DHT22;44361;51.476;5.700;2023-04-01T11:46:28;10.80;99.90
58582;DHT22;44361;51.476;5.700;2023-04-01T11:49:07;10.80;99.90
58582;DHT22;44361;51.476;5.700;2023-04-01T12:03:01;10.80;99.90
58582;DHT22;44361;51.476;5.700;2023-04-01T12:06:05;10.90;99.90
58582;DHT22;44361;51.476;5.700;2023-04-01T12:08:48;10.90;99.90
58582;DHT22;44361;51.476;5.700;2023-04-01T12:16:59;11.30;99.90
58582;DHT22;44361;51.476;5.700;2023-04-01T12:25:02;11.30;99.90
58582;DHT22;44361;51.476;5.700;2023-04-01T12:39:17;11.70;99.90
58582;DHT22;44361;51.476;5.700;2023-04-01T12:45:00;11.60;99.90
58582;DHT22;44361;51.476;5.700;2023-04-01T12:55:59;11.20;99.90
58582;DHT22;44361;51.476;5.700;2023-04-01T12:58:36;11.10;99.90
58582;DHT22;44361;51.476;5.700;2023-04-01T13:01:19;11.00;99.90
58582;DHT22;44361;51.476;5.700;2023-04-01T13:06:42;11.00;99.90
58582;DHT22;44361;51.476;5.700;2023-04-01T13:11:57;11.00;99.90
58582;DHT22;44361;51.476;5.700;2023-04-01T13:19:48;10.90;99.90
58582;DHT22;44361;51.476;5.700;2023-04-01T13:27:51;10.80;99.90
58582;DHT22;44361;51.476;5.700;2023-04-01T13:30:27;10.90;99.90
58582;DHT22;44361;51.476;5.700;2023-04-01T13:33:14;10.70;99.90
58582;DHT22;44361;51.476;5.700;2023-04-01T13:38:44;10.70;99.90
58582;DHT22;44361;51.476;5.700;2023-04-01T13:41:51;10.70;99.90
58582;DHT22;44361;51.476;5.700;2023-04-01T13:44:27;10.90;99.90
58582;DHT22;44361;51.476;5.700;2023-04-01T13:47:05;10.80;99.90
58582;DHT22;44361;51.476;5.700;2023-04-01T13:49:47;10.80;99.90
58582;DHT22;44361;51.476;5.700;2023-04-01T13:55:14;10.80;99.90
58582;DHT22;44361;51.476;5.700;2023-04-01T14:01:06;10.70;99.90
58582;DHT22;44361;51.476;5.700;2023-04-01T14:09:45;10.60;99.90
58582;DHT22;44361;51.476;5.700;2023-04-01T14:31:48;10.50;99.90
58582;DHT22;44361;51.476;5.700;2023-04-01T14:34:18;10.50;99.90
58582;DHT22;44361;51.476;5.700;2023-04-01T14:37:09;10.60;99.90
58582;DHT22;44361;51.476;5.700;2023-04-01T14:40:05;10.60;99.90
58582;DHT22;44361;51.476;5.700;2023-04-01T14:50:44;10.60;99.90
58582;DHT22;44361;51.476;5.700;2023-04-01T14:53:27;10.60;99.90
58582;DHT22;44361;51.476;5.700;2023-04-01T14:55:58;10.50;99.90
58582;DHT22;44361;51.476;5.700;2023-04-01T14:58:43;10.50;99.90
58582;DHT22;44361;51.476;5.700;2023-04-01T15:12:23;10.40;99.90
58582;DHT22;44361;51.476;5.700;2023-04-01T15:17:55;10.30;99.90
58582;DHT22;44361;51.476;5.700;2023-04-01T15:36:47;10.40;99.90
58582;DHT22;44361;51.476;5.700;2023-04-01T15:39:31;10.40;99.90
58582;DHT22;44361;51.476;5.700;2023-04-01T15:50:12;10.40;99.90
58582;DHT22;44361;51.476;5.700;2023-04-01T15:52:43;10.40;99.90
58582;DHT22;44361;51.476;5.700;2023-04-01T15:55:57;10.30;99.90
58582;DHT22;44361;51.476;5.700;2023-04-01T15:58:28;10.30;99.90
58582;DHT22;44361;51.476;5.700;2023-04-01T16:09:17;10.20;99.90
58582;DHT22;44361;51.476;5.700;2023-04-01T16:14:39;10.30;99.90
58582;DHT22;44361;51.476;5.700;2023-04-01T16:17:30;10.40;99.90
58582;DHT22;44361;51.476;5.700;2023-04-01T16:22:32;10.40;99.90
58582;DHT22;44361;51.476;5.700;2023-04-01T16:28:24;10.30;99.90
58582;DHT22;44361;51.476;5.700;2023-04-01T16:33:46;10.30;99.90
58582;DHT22;44361;51.476;5.700;2023-04-01T16:36:28;10.30;99.90
58582;DHT22;44361;51.476;5.700;2023-04-01T16:42:27;10.30;99.90
58582;DHT22;44361;51.476;5.700;2023-04-01T16:48:11;10.20;99.90
58582;DHT22;44361;51.476;5.700;2023-04-01T16:50:59;10.20;99.90
58582;DHT22;44361;51.476;5.700;2023-04-01T16:53:30;10.20;99.90
58582;DHT22;44361;51.476;5.700;2023-04-01T16:58:33;10.20;99.90
58582;DHT22;44361;51.476;5.700;2023-04-01T17:01:13;10.20;99.90
58582;DHT22;44361;51.476;5.700;2023-04-01T17:03:46;10.20;99.90
58582;DHT22;44361;51.476;5.700;2023-04-01T17:09:25;10.10;99.90
58582;DHT22;44361;51.476;5.700;2023-04-01T17:12:09;10.10;99.90
58582;DHT22;44361;51.476;5.700;2023-04-01T17:14:45;10.10;99.90
58582;DHT22;44361;51.476;5.700;2023-04-01T17:17:42;10.10;99.90
58582;DHT22;44361;51.476;5.700;2023-04-01T17:20:19;10.10;99.90
58582;DHT22;44361;51.476;5.700;2023-04-01T17:23:04;10.10;99.90
58582;DHT22;44361;51.476;5.700;2023-04-01T17:28:34;10.00;99.90
58582;DHT22;44361;51.476;5.700;2023-04-01T17:34:17;10.10;99.90
58582;DHT22;44361;51.476;5.700;2023-04-01T17:42:21;10.10;99.90
58582;DHT22;44361;51.476;5.700;2023-04-01T17:47:57;10.10;99.90
58582;DHT22;44361;51.476;5.700;2023-04-01T17:59:05;10.20;99.90
58582;DHT22;44361;51.476;5.700;2023-04-01T18:02:09;10.10;99.90
58582;DHT22;44361;51.476;5.700;2023-04-01T18:07:37;10.10;99.90
58582;DHT22;44361;51.476;5.700;2023-04-01T18:10:25;10.10;99.90
58582;DHT22;44361;51.476;5.700;2023-04-01T18:13:24;10.10;99.90
58582;DHT22;44361;51.476;5.700;2023-04-01T18:19:09;10.10;99.90
58582;DHT22;44361;51.476;5.700;2023-04-01T18:21:56;10.10;99.90
58582;DHT22;44361;51.476;5.700;2023-04-01T18:24:42;10.10;99.90
58582;DHT22;44361;51.476;5.700;2023-04-01T18:27:38;10.10;99.90
58582;DHT22;44361;51.476;5.700;2023-04-01T18:30:49;10.10;99.90
58582;DHT22;44361;51.476;5.700;2023-04-01T18:38:53;10.10;99.90
58582;DHT22;44361;51.476;5.700;2023-04-01T18:41:20;10.10;99.90
58582;DHT22;44361;51.476;5.700;2023-04-01T18:50:22;9.80;99.90
58582;DHT22;44361;51.476;5.700;2023-04-01T18:52:56;9.80;99.90
58582;DHT22;44361;51.476;5.700;2023-04-01T18:55:37;9.70;99.90
58582;DHT22;44361;51.476;5.700;2023-04-01T19:00:48;9.70;99.90
58582;DHT22;44361;51.476;5.700;2023-04-01T19:03:20;9.70;99.90
58582;DHT22;44361;51.476;5.700;2023-04-01T19:05:49;9.70;99.90
58582;DHT22;44361;51.476;5.700;2023-04-01T19:27:40;9.50;99.90
58582;DHT22;44361;51.476;5.700;2023-04-01T19:30:31;9.50;99.90
58582;DHT22;44361;51.476;5.700;2023-04-01T19:39:03;9.50;99.90
58582;DHT22;44361;51.476;5.700;2023-04-01T19:41:43;9.40;99.90
58582;DHT22;44361;51.476;5.700;2023-04-01T19:44:26;9.40;99.90
58582;DHT22;44361;51.476;5.700;2023-04-01T19:49:51;9.30;99.90
58582;DHT22;44361;51.476;5.700;2023-04-01T19:57:58;9.20;99.90
58582;DHT22;44361;51.476;5.700;2023-04-01T20:00:40;9.20;99.90
58582;DHT22;44361;51.476;5.700;2023-04-01T20:03:16;9.10;99.90
58582;DHT22;44361;51.476;5.700;2023-04-01T20:12:00;9.10;99.90
58582;DHT22;44361;51.476;5.700;2023-04-01T20:14:33;9.10;99.90
58582;DHT22;44361;51.476;5.700;2023-04-01T20:17:12;9.10;99.90
58582;DHT22;44361;51.476;5.700;2023-04-01T20:19:42;9.00;99.90
58582;DHT22;44361;51.476;5.700;2023-04-01T20:22:24;9.00;99.90
58582;DHT22;44361;51.476;5.700;2023-04-01T20:24:58;9.00;99.90
58582;DHT22;44361;51.476;5.700;2023-04-01T20:27:32;9.00;99.90
58582;DHT22;44361;51.476;5.700;2023-04-01T20:33:20;8.90;99.90
58582;DHT22;44361;51.476;5.700;2023-04-01T20:36:24;8.80;99.90
58582;DHT22;44361;51.476;5.700;2023-04-01T20:39:15;8.80;99.90
58582;DHT22;44361;51.476;5.700;2023-04-01T20:50:00;8.70;99.90
58582;DHT22;44361;51.476;5.700;2023-04-01T20:53:05;8.60;99.90
58582;DHT22;44361;51.476;5.700;2023-04-01T20:58:37;8.60;99.90
58582;DHT22;44361;51.476;5.700;2023-04-01T21:03:58;8.60;99.90
58582;DHT22;44361;51.476;5.700;2023-04-01T21:06:31;8.50;99.90
58582;DHT22;44361;51.476;5.700;2023-04-01T21:14:34;8.50;99.90
58582;DHT22;44361;51.476;5.700;2023-04-01T21:20:01;8.40;99.90
58582;DHT22;44361;51.476;5.700;2023-04-01T21:25:29;8.40;99.90
58582;DHT22;44361;51.476;5.700;2023-04-01T21:33:26;8.40;99.90
58582;DHT22;44361;51.476;5.700;2023-04-01T21:50:12;8.30;99.90
58582;DHT22;44361;51.476;5.700;2023-04-01T22:00:42;8.10;99.90
58582;DHT22;44361;51.476;5.700;2023-04-01T22:03:39;8.10;99.90
58582;DHT22;44361;51.476;5.700;2023-04-01T22:06:11;8.10;99.90
58582;DHT22;44361;51.476;5.700;2023-04-01T22:11:29;8.00;99.90
58582;DHT22;44361;51.476;5.700;2023-04-01T22:20:27;8.00;99.90
58582;DHT22;44361;51.476;5.700;2023-04-01T22:23:20;8.00;99.90
58582;DHT22;44361;51.476;5.700;2023-04-01T22:25:56;7.90;99.90
58582;DHT22;44361;51.476;5.700;2023-04-01T22:28:36;7.80;99.90
58582;DHT22;44361;51.476;5.700;2023-04-01T22:31:05;7.80;99.90
58582;DHT22;44361;51.476;5.700;2023-04-01T22:36:38;7.80;99.90
58582;DHT22;44361;51.476;5.700;2023-04-01T22:39:24;7.80;99.90
58582;DHT22;44361;51.476;5.700;2023-04-01T22:47:30;7.70;99.90
58582;DHT22;44361;51.476;5.700;2023-04-01T22:50:15;7.60;99.90
58582;DHT22;44361;51.476;5.700;2023-04-01T22:52:46;7.60;99.90
58582;DHT22;44361;51.476;5.700;2023-04-01T22:55:23;7.50;99.90
58582;DHT22;44361;51.476;5.700;2023-04-01T22:58:03;7.50;99.90
58582;DHT22;44361;51.476;5.700;2023-04-01T23:00:34;7.50;99.90
58582;DHT22;44361;51.476;5.700;2023-04-01T23:05:56;7.40;99.90
58582;DHT22;44361;51.476;5.700;2023-04-01T23:11:25;7.30;99.90
58582;DHT22;44361;51.476;5.700;2023-04-01T23:19:32;7.30;99.90
58582;DHT22;44361;51.476;5.700;2023-04-01T23:24:39;7.20;99.90
58582;DHT22;44361;51.476;5.700;2023-04-01T23:27:12;7.20;99.90
58582;DHT22;44361;51.476;5.700;2023-04-01T23:29:43;7.20;99.90
58582;DHT22;44361;51.476;5.700;2023-04-01T23:32:27;7.10;99.90
58582;DHT22;44361;51.476;5.700;2023-04-01T23:34:56;7.10;99.90
58582;DHT22;44361;51.476;5.700;2023-04-01T23:37:23;7.10;99.90
58582;DHT22;44361;51.476;5.700;2023-04-01T23:39:51;7.10;99.90
58582;DHT22;44361;51.476;5.700;2023-04-01T23:42:29;7.00;99.90
58582;DHT22;44361;51.476;5.700;2023-04-01T23:45:02;7.10;99.90
58582;DHT22;44361;51.476;5.700;2023-04-01T23:47:32;7.10;99.90
58582;DHT22;44361;51.476;5.700;2023-04-01T23:50:00;7.10;99.90
58582;DHT22;44361;51.476;5.700;2023-04-01T23:52:35;7.10;99.90
58582;DHT22;44361;51.476;5.700;2023-04-01T23:57:36;7.00;99.90
